createdAt,value
2023-03-15T00:00:12.794Z,9.00
2023-03-15T00:03:04.406Z,5.40
2023-03-15T00:05:33.553Z,7.20
2023-03-15T00:08:05.625Z,6.40
2023-03-15T00:10:34.306Z,5.00
2023-03-15T00:13:03.041Z,6.00
2023-03-15T00:15:32.129Z,4.80
2023-03-15T00:18:03.665Z,7.00
2023-03-15T00:20:33.620Z,6.60
2023-03-15T00:23:02.408Z,9.90
2023-03-15T00:25:30.979Z,10.40
2023-03-15T00:27:59.677Z,10.80
2023-03-15T00:30:28.936Z,9.00
2023-03-15T00:32:57.706Z,10.50
2023-03-15T00:35:26.579Z,5.80
2023-03-15T00:37:56.693Z,6.30
2023-03-15T00:40:25.830Z,8.00
2023-03-15T00:42:54.528Z,6.70
2023-03-15T00:45:23.708Z,7.60
2023-03-15T00:47:55.073Z,8.00
2023-03-15T00:50:24.263Z,6.00
2023-03-15T00:52:53.078Z,10.30
2023-03-15T00:55:22.122Z,5.50
2023-03-15T00:57:50.712Z,6.30
2023-03-15T01:00:25.181Z,8.20
2023-03-15T01:02:55.470Z,7.00
2023-03-15T01:05:24.347Z,8.50
2023-03-15T01:07:53.300Z,8.10
2023-03-15T01:10:22.062Z,4.50
2023-03-15T01:12:50.797Z,8.70
2023-03-15T01:15:19.912Z,10.00
2023-03-15T01:17:48.533Z,7.00
2023-03-15T01:20:17.286Z,6.40
2023-03-15T01:22:46.463Z,10.30
2023-03-15T01:25:15.109Z,7.20
2023-03-15T01:27:43.897Z,6.30
2023-03-15T01:30:12.841Z,4.50
2023-03-15T01:32:41.914Z,9.60
2023-03-15T01:35:10.844Z,9.70
2023-03-15T01:37:39.658Z,6.80
2023-03-15T01:40:14.829Z,8.50
2023-03-15T01:43:12.860Z,8.20
2023-03-15T01:46:20.338Z,8.40
2023-03-15T01:49:05.940Z,8.10
2023-03-15T01:51:42.233Z,5.80
2023-03-15T01:54:19.687Z,6.80
2023-03-15T01:56:53.481Z,9.20
2023-03-15T01:59:46.081Z,10.10
2023-03-15T02:02:15.262Z,10.60
2023-03-15T02:04:50.032Z,12.40
2023-03-15T02:07:21.286Z,8.50
2023-03-15T02:10:02.685Z,10.50
2023-03-15T02:12:34.120Z,10.70
2023-03-15T02:15:06.274Z,13.50
2023-03-15T02:17:38.371Z,10.20
2023-03-15T02:20:28.362Z,12.40
2023-03-15T02:23:01.505Z,11.10
2023-03-15T02:25:51.373Z,10.00
2023-03-15T02:28:20.931Z,8.80
2023-03-15T02:30:51.065Z,10.60
2023-03-15T02:33:19.579Z,9.20
2023-03-15T02:35:48.288Z,8.90
2023-03-15T02:38:17.144Z,11.50
2023-03-15T02:40:47.087Z,7.30
2023-03-15T02:43:20.743Z,7.40
2023-03-15T02:48:19.722Z,8.30
2023-03-15T02:50:48.259Z,8.50
2023-03-15T02:53:17.003Z,6.40
2023-03-15T02:55:45.575Z,7.20
2023-03-15T02:58:14.132Z,8.90
2023-03-15T03:00:43.203Z,7.60
2023-03-15T03:03:12.051Z,6.70
2023-03-15T03:05:41.305Z,8.50
2023-03-15T03:08:37.234Z,7.60
2023-03-15T03:11:06.873Z,6.80
2023-03-15T03:13:35.616Z,8.00
2023-03-15T03:16:04.319Z,8.30
2023-03-15T03:18:36.178Z,7.20
2023-03-15T03:21:07.347Z,10.20
2023-03-15T03:23:36.935Z,6.50
2023-03-15T03:26:17.154Z,9.80
2023-03-15T03:28:47.518Z,5.60
2023-03-15T03:31:22.764Z,9.60
2023-03-15T03:33:52.067Z,11.70
2023-03-15T03:36:20.769Z,12.10
2023-03-15T03:38:49.486Z,10.90
2023-03-15T03:41:18.275Z,8.90
2023-03-15T03:43:47.431Z,8.70
2023-03-15T03:46:16.093Z,9.50
2023-03-15T03:48:44.886Z,9.20
2023-03-15T03:51:13.528Z,9.30
2023-03-15T03:53:42.240Z,7.70
2023-03-15T03:56:11.287Z,11.90
2023-03-15T03:58:39.882Z,5.30
2023-03-15T04:01:09.099Z,12.20
2023-03-15T04:03:38.257Z,9.70
2023-03-15T04:06:06.988Z,6.80
2023-03-15T04:08:55.857Z,11.70
2023-03-15T04:11:27.062Z,12.50
2023-03-15T04:13:56.123Z,8.80
2023-03-15T04:16:25.066Z,10.70
2023-03-15T04:18:56.733Z,6.60
2023-03-15T04:21:25.436Z,8.20
2023-03-15T04:23:54.494Z,9.60
2023-03-15T04:26:26.791Z,11.80
2023-03-15T04:28:58.169Z,13.80
2023-03-15T04:31:27.558Z,8.90
2023-03-15T04:33:57.260Z,8.80
2023-03-15T04:36:26.323Z,6.80
2023-03-15T04:39:05.757Z,7.90
2023-03-15T04:41:39.853Z,8.30
2023-03-15T04:46:37.416Z,7.00
2023-03-15T04:49:06.476Z,8.10
2023-03-15T04:51:35.453Z,7.20
2023-03-15T04:54:04.139Z,7.30
2023-03-15T04:56:33.285Z,9.20
2023-03-15T04:59:03.090Z,9.10
2023-03-15T05:01:32.633Z,7.40
2023-03-15T05:04:01.479Z,9.50
2023-03-15T05:06:30.148Z,7.20
2023-03-15T05:10:04.847Z,7.60
2023-03-15T05:12:34.285Z,7.90
2023-03-15T05:15:03.046Z,6.40
2023-03-15T05:17:34.006Z,10.40
2023-03-15T05:20:02.836Z,5.70
2023-03-15T05:22:31.475Z,6.20
2023-03-15T05:25:00.068Z,6.40
2023-03-15T05:27:29.655Z,11.70
2023-03-15T05:29:58.794Z,8.80
2023-03-15T05:32:27.513Z,8.40
2023-03-15T05:34:56.270Z,7.80
2023-03-15T05:37:24.946Z,8.30
2023-03-15T05:39:54.017Z,8.60
2023-03-15T05:42:26.584Z,9.20
2023-03-15T05:44:57.497Z,7.10
2023-03-15T05:47:26.193Z,9.70
2023-03-15T05:49:54.912Z,6.40
2023-03-15T05:52:24.662Z,6.10
2023-03-15T05:54:53.293Z,7.70
2023-03-15T05:57:21.973Z,15.40
2023-03-15T05:59:51.062Z,7.50
2023-03-15T06:02:20.401Z,9.10
2023-03-15T06:04:49.116Z,9.40
2023-03-15T06:07:18.394Z,7.20
2023-03-15T06:10:46.829Z,12.70
2023-03-15T06:13:17.897Z,9.60
2023-03-15T06:15:48.230Z,13.20
2023-03-15T06:18:17.802Z,6.60
2023-03-15T06:20:46.585Z,8.60
2023-03-15T06:23:15.369Z,8.00
2023-03-15T06:25:45.719Z,9.50
2023-03-15T06:28:14.861Z,8.10
2023-03-15T06:30:44.624Z,8.60
2023-03-15T06:33:13.683Z,6.40
2023-03-15T06:35:43.048Z,8.80
2023-03-15T06:38:14.098Z,10.40
2023-03-15T06:40:44.169Z,6.60
2023-03-15T06:43:18.679Z,12.50
2023-03-15T06:45:47.781Z,8.00
2023-03-15T06:48:16.429Z,8.30
2023-03-15T06:50:47.529Z,8.80
2023-03-15T06:53:17.204Z,7.50
2023-03-15T06:55:47.756Z,10.90
2023-03-15T06:58:17.206Z,10.90
2023-03-15T07:00:46.256Z,10.30
2023-03-15T07:03:15.440Z,11.60
2023-03-15T07:05:45.866Z,9.10
2023-03-15T07:08:15.949Z,9.60
2023-03-15T07:10:44.854Z,8.90
2023-03-15T07:13:14.515Z,7.80
2023-03-15T07:15:43.873Z,10.10
2023-03-15T07:18:12.561Z,9.60
2023-03-15T07:20:41.246Z,7.60
2023-03-15T07:23:09.868Z,9.20
2023-03-15T07:25:52.310Z,12.00
2023-03-15T07:28:25.764Z,8.00
2023-03-15T07:30:58.787Z,6.60
2023-03-15T07:33:29.328Z,8.70
2023-03-15T07:35:58.385Z,8.70
2023-03-15T07:38:31.475Z,9.60
2023-03-15T07:41:04.367Z,6.90
2023-03-15T07:43:34.191Z,7.30
2023-03-15T07:46:03.017Z,9.40
2023-03-15T07:48:32.132Z,9.10
2023-03-15T07:51:00.730Z,9.10
2023-03-15T07:53:29.404Z,8.50
2023-03-15T07:55:58.155Z,6.70
2023-03-15T07:58:26.982Z,7.20
2023-03-15T08:00:56.844Z,7.60
2023-03-15T08:03:27.221Z,4.70
2023-03-15T08:05:58.771Z,8.50
2023-03-15T08:08:33.288Z,8.80
2023-03-15T08:11:04.858Z,9.60
2023-03-15T08:13:34.317Z,8.50
2023-03-15T08:16:03.144Z,8.40
2023-03-15T08:18:31.829Z,9.10
2023-03-15T08:21:00.605Z,6.70
2023-03-15T08:23:29.186Z,7.70
2023-03-15T08:25:58.383Z,7.50
2023-03-15T08:28:27.224Z,7.60
2023-03-15T08:30:55.865Z,7.10
2023-03-15T08:33:25.005Z,7.80
2023-03-15T08:35:54.779Z,9.00
2023-03-15T08:38:23.586Z,8.80
2023-03-15T08:40:57.544Z,7.10
2023-03-15T08:43:26.919Z,9.10
2023-03-15T08:46:02.606Z,8.30
2023-03-15T08:48:32.224Z,9.30
2023-03-15T08:51:09.227Z,10.30
2023-03-15T08:53:38.740Z,7.90
2023-03-15T08:56:07.702Z,7.70
2023-03-15T08:58:36.382Z,10.50
2023-03-15T09:01:05.568Z,8.20
2023-03-15T09:03:34.802Z,10.20
2023-03-15T09:06:03.765Z,9.40
2023-03-15T09:08:34.492Z,8.70
2023-03-15T09:11:05.860Z,9.40
2023-03-15T09:13:34.419Z,7.90
2023-03-15T09:16:03.827Z,5.10
2023-03-15T09:18:32.678Z,9.20
2023-03-15T09:21:02.184Z,7.30
2023-03-15T09:23:30.884Z,11.30
2023-03-15T09:25:59.587Z,7.00
2023-03-15T09:28:28.304Z,8.20
2023-03-15T09:30:59.542Z,6.80
2023-03-15T09:33:28.788Z,8.80
2023-03-15T09:35:58.141Z,10.50
2023-03-15T09:38:27.185Z,7.80
2023-03-15T09:41:00.704Z,8.70
2023-03-15T09:43:58.415Z,6.40
2023-03-15T09:46:58.907Z,8.70
2023-03-15T09:49:46.131Z,7.10
2023-03-15T09:52:38.712Z,8.50
2023-03-15T09:55:26.972Z,8.30
2023-03-15T09:58:03.429Z,8.60
2023-03-15T10:00:44.096Z,8.60
2023-03-15T10:03:32.290Z,7.00
2023-03-15T10:06:02.807Z,7.80
2023-03-15T10:08:50.908Z,7.80
2023-03-15T10:11:44.450Z,7.30
2023-03-15T10:14:28.634Z,7.20
2023-03-15T10:16:57.136Z,6.00
2023-03-15T10:19:51.337Z,7.70
2023-03-15T10:22:20.757Z,5.70
2023-03-15T10:24:52.393Z,6.50
2023-03-15T10:27:43.635Z,5.70
2023-03-15T10:30:28.711Z,7.40
2023-03-15T10:33:01.001Z,7.80
2023-03-15T10:35:30.071Z,5.70
2023-03-15T10:37:59.212Z,6.10
2023-03-15T10:40:42.055Z,5.60
2023-03-15T10:43:24.499Z,7.20
2023-03-15T10:46:01.053Z,6.00
2023-03-15T10:48:31.839Z,4.70
2023-03-15T10:51:14.863Z,5.90
2023-03-15T10:54:12.942Z,4.70
2023-03-15T10:56:50.511Z,6.60
2023-03-15T10:59:26.742Z,3.70
2023-03-15T11:02:09.794Z,7.00
2023-03-15T11:04:47.921Z,5.60
2023-03-15T11:07:16.352Z,4.00
2023-03-15T11:09:53.463Z,5.00
2023-03-15T11:12:24.794Z,6.60
2023-03-15T11:14:57.523Z,5.40
2023-03-15T11:17:33.756Z,3.80
2023-03-15T11:20:13.667Z,3.20
2023-03-15T11:22:42.482Z,4.30
2023-03-15T11:25:19.259Z,6.20
2023-03-15T11:27:53.793Z,4.50
2023-03-15T11:30:26.029Z,4.50
2023-03-15T11:32:55.637Z,4.30
2023-03-15T11:35:49.121Z,5.60
2023-03-15T11:38:25.281Z,3.10
2023-03-15T11:40:57.931Z,3.90
2023-03-15T11:43:46.204Z,4.90
2023-03-15T11:46:25.605Z,5.40
2023-03-15T11:49:03.046Z,3.40
2023-03-15T11:51:36.727Z,3.90
2023-03-15T11:54:08.218Z,5.50
2023-03-15T11:56:51.173Z,4.60
2023-03-15T11:59:40.496Z,4.60
2023-03-15T12:02:13.540Z,4.30
2023-03-15T12:04:45.220Z,13.20
2023-03-15T12:07:22.682Z,4.60
2023-03-15T12:10:19.600Z,4.80
2023-03-15T12:12:49.053Z,2.90
2023-03-15T12:15:20.715Z,3.10
2023-03-15T12:17:55.413Z,4.40
2023-03-15T12:20:38.631Z,5.10
2023-03-15T12:23:19.253Z,5.70
2023-03-15T12:25:55.181Z,4.50
2023-03-15T12:28:27.432Z,5.30
2023-03-15T12:31:04.563Z,6.00
2023-03-15T12:33:35.110Z,3.90
2023-03-15T12:36:09.131Z,5.30
2023-03-15T12:38:38.911Z,6.30
2023-03-15T12:41:08.822Z,2.70
2023-03-15T12:43:39.238Z,2.60
2023-03-15T12:46:07.887Z,3.90
2023-03-15T12:48:36.500Z,2.70
2023-03-15T12:51:05.389Z,4.80
2023-03-15T12:53:40.217Z,4.20
2023-03-15T12:56:24.140Z,5.10
2023-03-15T12:58:55.678Z,2.30
2023-03-15T13:01:26.138Z,3.10
2023-03-15T13:03:56.933Z,4.60
2023-03-15T13:06:38.834Z,3.60
2023-03-15T13:13:01.356Z,3.10
2023-03-15T13:15:34.685Z,6.10
2023-03-15T13:18:18.295Z,4.20
2023-03-15T13:20:51.041Z,5.10
2023-03-15T13:23:26.704Z,6.50
2023-03-15T13:25:58.188Z,3.30
2023-03-15T13:28:39.343Z,3.40
2023-03-15T13:31:12.598Z,3.50
2023-03-15T13:33:41.046Z,3.80
2023-03-15T13:36:17.037Z,2.50
2023-03-15T13:38:47.285Z,4.70
2023-03-15T13:41:23.171Z,3.60
2023-03-15T13:43:53.354Z,2.50
2023-03-15T13:46:23.647Z,2.70
2023-03-15T13:48:53.352Z,2.40
2023-03-15T13:51:26.264Z,2.30
2023-03-15T13:54:02.556Z,3.70
2023-03-15T13:56:49.276Z,4.10
2023-03-15T13:59:19.319Z,2.40
2023-03-15T14:01:50.063Z,5.50
2023-03-15T14:04:19.439Z,6.00
2023-03-15T14:06:48.201Z,3.50
2023-03-15T14:09:42.084Z,2.60
2023-03-15T14:12:23.295Z,1.40
2023-03-15T14:14:53.985Z,2.10
2023-03-15T14:17:27.483Z,3.80
2023-03-15T14:19:57.166Z,2.90
2023-03-15T14:22:26.149Z,4.10
2023-03-15T14:24:54.730Z,4.20
2023-03-15T14:27:27.016Z,3.30
2023-03-15T14:29:57.449Z,2.60
2023-03-15T14:32:28.550Z,2.80
2023-03-15T14:35:01.791Z,2.80
2023-03-15T14:37:40.889Z,2.60
2023-03-15T14:40:28.406Z,3.40
2023-03-15T14:42:56.912Z,2.80
2023-03-15T14:45:25.718Z,4.20
2023-03-15T14:47:59.606Z,3.90
2023-03-15T14:50:31.231Z,5.60
2023-03-15T14:52:59.706Z,4.00
2023-03-15T14:55:30.743Z,3.00
2023-03-15T14:58:00.063Z,6.60
2023-03-15T15:00:29.298Z,4.50
2023-03-15T15:02:57.857Z,4.60
2023-03-15T15:05:28.497Z,4.70
2023-03-15T15:08:22.853Z,2.00
2023-03-15T15:10:53.686Z,4.20
2023-03-15T15:13:24.061Z,6.50
2023-03-15T15:15:56.032Z,7.30
2023-03-15T15:18:26.235Z,6.20
2023-03-15T15:20:56.413Z,2.70
2023-03-15T15:23:25.697Z,6.70
2023-03-15T15:26:01.810Z,3.50
2023-03-15T15:28:36.076Z,3.70
2023-03-15T15:31:08.161Z,5.20
2023-03-15T15:33:37.000Z,5.90
2023-03-15T15:36:07.884Z,4.80
2023-03-15T15:38:39.288Z,5.50
2023-03-15T15:41:13.423Z,4.70
2023-03-15T15:46:11.890Z,5.70
2023-03-15T15:48:40.891Z,4.00
2023-03-15T15:51:17.420Z,6.00
2023-03-15T15:53:46.538Z,5.70
2023-03-15T15:56:15.321Z,6.10
2023-03-15T15:58:44.736Z,4.40
2023-03-15T16:01:16.782Z,7.30
2023-03-15T16:03:45.777Z,5.00
2023-03-15T16:06:16.618Z,7.10
2023-03-15T16:09:01.958Z,4.50
2023-03-15T16:11:30.871Z,6.80
2023-03-15T16:14:00.340Z,6.60
2023-03-15T16:16:30.703Z,6.60
2023-03-15T16:18:59.700Z,4.50
2023-03-15T16:21:33.960Z,5.80
2023-03-15T16:24:06.210Z,7.00
2023-03-15T16:26:37.250Z,7.90
2023-03-15T16:29:15.380Z,7.80
2023-03-15T16:31:45.802Z,8.70
2023-03-15T16:34:18.702Z,7.50
2023-03-15T16:36:55.729Z,5.50
2023-03-15T16:39:26.270Z,8.00
2023-03-15T16:41:57.009Z,9.10
2023-03-15T16:44:28.180Z,9.10
2023-03-15T16:46:57.185Z,5.40
2023-03-15T16:49:28.324Z,9.80
2023-03-15T16:51:57.465Z,7.60
2023-03-15T16:54:40.246Z,10.00
2023-03-15T16:57:13.513Z,10.20
2023-03-15T16:59:43.289Z,13.10
2023-03-15T17:02:23.133Z,12.90
2023-03-15T17:04:53.827Z,15.50
2023-03-15T17:07:25.898Z,11.40
2023-03-15T17:10:03.189Z,9.50
2023-03-15T17:12:33.394Z,13.90
2023-03-15T17:15:07.146Z,9.70
2023-03-15T17:17:37.138Z,8.70
2023-03-15T17:20:11.227Z,10.40
2023-03-15T17:22:44.543Z,13.40
2023-03-15T17:25:14.671Z,12.80
2023-03-15T17:27:50.065Z,11.80
2023-03-15T17:30:26.365Z,12.10
2023-03-15T17:32:57.968Z,11.30
2023-03-15T17:35:36.035Z,10.00
2023-03-15T17:38:07.590Z,16.60
2023-03-15T17:40:37.655Z,22.00
2023-03-15T17:43:09.156Z,24.00
2023-03-15T17:45:39.191Z,26.90
2023-03-15T17:48:09.101Z,26.60
2023-03-15T17:50:39.128Z,26.50
2023-03-15T17:53:17.694Z,24.90
2023-03-15T17:55:48.391Z,28.40
2023-03-15T17:58:20.980Z,52.40
2023-03-15T18:00:52.454Z,122.60
2023-03-15T18:03:24.769Z,158.90
2023-03-15T18:05:54.582Z,156.10
2023-03-15T18:08:25.946Z,176.80
2023-03-15T18:10:56.812Z,230.30
2023-03-15T18:13:28.152Z,211.90
2023-03-15T18:15:58.485Z,157.00
2023-03-15T18:18:29.344Z,145.90
2023-03-15T18:20:59.707Z,152.90
2023-03-15T18:23:29.351Z,127.40
2023-03-15T18:26:02.654Z,156.60
2023-03-15T18:28:33.802Z,109.10
2023-03-15T18:31:03.852Z,98.60
2023-03-15T18:33:45.112Z,87.30
2023-03-15T18:36:16.960Z,80.00
2023-03-15T18:38:48.053Z,85.50
2023-03-15T18:41:21.690Z,82.20
2023-03-15T18:43:52.718Z,71.50
2023-03-15T18:46:27.655Z,74.50
2023-03-15T18:48:57.968Z,78.60
2023-03-15T18:51:29.942Z,75.20
2023-03-15T18:54:02.298Z,74.50
2023-03-15T18:56:38.632Z,73.50
2023-03-15T18:59:13.367Z,70.20
2023-03-15T19:01:45.673Z,61.80
2023-03-15T19:04:16.228Z,74.10
2023-03-15T19:06:47.044Z,62.90
2023-03-15T19:09:21.331Z,66.90
2023-03-15T19:11:51.788Z,60.90
2023-03-15T19:14:23.351Z,49.50
2023-03-15T19:16:57.865Z,41.80
2023-03-15T19:19:29.281Z,43.60
2023-03-15T19:21:59.541Z,39.90
2023-03-15T19:24:33.659Z,40.50
2023-03-15T19:29:40.143Z,56.90
2023-03-15T19:32:11.462Z,61.10
2023-03-15T19:34:45.391Z,53.80
2023-03-15T19:37:16.021Z,62.50
2023-03-15T19:39:47.551Z,45.90
2023-03-15T19:42:18.100Z,45.10
2023-03-15T19:44:49.125Z,45.20
2023-03-15T19:47:21.900Z,43.40
2023-03-15T19:49:53.410Z,60.10
2023-03-15T19:52:26.732Z,72.10
2023-03-15T19:54:58.861Z,69.30
2023-03-15T19:57:34.500Z,59.60
2023-03-15T20:00:07.421Z,52.30
2023-03-15T20:02:45.927Z,49.50
2023-03-15T20:05:30.450Z,53.40
2023-03-15T20:08:08.648Z,44.00
2023-03-15T20:13:22.992Z,29.70
2023-03-15T20:15:53.725Z,41.70
2023-03-15T20:18:25.782Z,40.20
2023-03-15T20:20:55.882Z,36.10
2023-03-15T20:23:26.577Z,35.90
2023-03-15T20:26:07.897Z,41.80
2023-03-15T20:28:42.863Z,41.60
2023-03-15T20:31:18.997Z,44.00
2023-03-15T20:33:53.616Z,46.80
2023-03-15T20:36:25.594Z,50.10
2023-03-15T20:38:56.447Z,57.60
2023-03-15T20:41:28.070Z,56.30
2023-03-15T20:43:59.344Z,57.70
2023-03-15T20:46:31.436Z,48.40
2023-03-15T20:49:02.347Z,60.80
2023-03-15T20:51:35.610Z,53.20
2023-03-15T20:54:06.279Z,58.00
2023-03-15T20:56:38.460Z,54.20
2023-03-15T20:59:09.850Z,57.00
2023-03-15T21:01:44.208Z,52.30
2023-03-15T21:04:13.998Z,64.80
2023-03-15T21:06:45.603Z,55.40
2023-03-15T21:09:41.552Z,50.70
2023-03-15T21:12:11.071Z,47.10
2023-03-15T21:14:42.866Z,40.00
2023-03-15T21:17:15.597Z,43.10
2023-03-15T21:19:46.185Z,39.40
2023-03-15T21:22:18.022Z,40.70
2023-03-15T21:24:55.921Z,39.40
2023-03-15T21:27:29.968Z,49.80
2023-03-15T21:30:00.197Z,40.10
2023-03-15T21:32:28.786Z,44.90
2023-03-15T21:34:58.796Z,37.70
2023-03-15T21:37:29.742Z,37.40
2023-03-15T21:40:00.008Z,34.00
2023-03-15T21:42:29.535Z,43.70
2023-03-15T21:44:59.170Z,54.90
2023-03-15T21:47:30.208Z,49.30
2023-03-15T21:50:00.899Z,31.70
2023-03-15T21:52:31.218Z,31.30
2023-03-15T21:55:01.948Z,38.40
2023-03-15T21:57:30.758Z,45.60
2023-03-15T21:59:59.670Z,64.70
2023-03-15T22:02:29.084Z,64.70
2023-03-15T22:04:57.773Z,53.00
2023-03-15T22:07:26.750Z,92.20
2023-03-15T22:09:56.693Z,96.30
2023-03-15T22:12:27.850Z,92.80
2023-03-15T22:15:05.259Z,93.80
2023-03-15T22:17:35.335Z,90.90
2023-03-15T22:20:08.723Z,107.20
2023-03-15T22:22:38.608Z,105.80
2023-03-15T22:25:07.216Z,95.10
2023-03-15T22:27:35.630Z,89.70
2023-03-15T22:30:04.948Z,94.80
2023-03-15T22:32:33.376Z,95.50
2023-03-15T22:35:01.835Z,100.60
2023-03-15T22:37:30.212Z,98.60
2023-03-15T22:39:58.663Z,98.00
2023-03-15T22:42:27.087Z,106.10
2023-03-15T22:44:55.505Z,112.70
2023-03-15T22:47:23.984Z,117.70
2023-03-15T22:49:53.033Z,103.30
2023-03-15T22:52:21.520Z,101.20
2023-03-15T22:54:50.536Z,95.50
2023-03-15T22:57:19.461Z,91.20
2023-03-15T22:59:48.180Z,96.20
2023-03-15T23:02:16.626Z,76.90
2023-03-15T23:04:46.314Z,87.30
2023-03-15T23:07:14.754Z,78.40
2023-03-15T23:09:50.113Z,75.40
2023-03-15T23:12:24.332Z,69.90
2023-03-15T23:14:55.727Z,70.60
2023-03-15T23:17:24.647Z,74.60
2023-03-15T23:19:54.119Z,78.80
2023-03-15T23:22:22.730Z,85.40
2023-03-15T23:24:51.997Z,83.70
2023-03-15T23:27:20.479Z,86.00
2023-03-15T23:29:54.402Z,79.60
2023-03-15T23:32:25.416Z,82.70
2023-03-15T23:34:54.156Z,73.70
2023-03-15T23:37:24.641Z,81.80
2023-03-15T23:39:55.655Z,81.90
2023-03-15T23:42:26.107Z,70.10
2023-03-15T23:44:55.494Z,68.30
2023-03-15T23:47:24.722Z,61.50
2023-03-15T23:49:53.166Z,67.50
2023-03-15T23:52:25.644Z,73.80
2023-03-15T23:54:54.424Z,59.60
2023-03-15T23:57:23.048Z,74.10
2023-03-15T23:59:51.877Z,65.70
